Etusivu
METAR-TAF:

METAR-TAF

Lentoasemat :

Tozeur, Tunisia

Leveyspiiri: 33-55N, Pituuspiiri: 008-06E, korkeus merenpinnasta: 87 m

Tämänhetkinen sää

Tämä raportti tehtiin 1 tunti ja 11 minuuttia sitten, kello 06.00 UTC
Tuuli 10 kn idästä
Lämpötila 28°C
Kosteus 22%
Ilmanpaine 1013 hPa
Näkyvyys 10 km tai enemmän
ei pilviä alle 1500 m:ssä eikä cumulonimbus-pilviä

METAR: DTTZ 190600Z 10010KT CAVOK 28/04 Q1013

Aika: 08:11 (07:11 UTC)

Sääennuste

Tämä raportti tehtiin 2 tuntia ja 11 minuuttia sitten, kello 05.00 UTC
Ennuste voimassa 19. päivästä klo 06 UTC - 20. päivään klo 06 UTC
Tuuli 10 kn idästä
Näkyvyys 10 km tai enemmän
ei pilviä alle 1500 m:ssä eikä cumulonimbus-pilviä
Tulossa
19. päivästä klo 10 UTC - 19. päivään klo 12 UTC
Tuuli 5 kn etelästä/kaakosta
Tulossa
19. päivästä klo 18 UTC - 19. päivään klo 20 UTC
Tuuli 22 kn idästä
Näkyvyys: 4000 m
hiekkaa

TAF: DTTZ 190500Z 1906/2006 10010KT CAVOK BECMG 1910/1912 16005KT BECMG 1918/1920 09022KT 4000 SA

Säähavainnot ja -ennusteet yli 4000 lentoasemalta (METAR- ja TAF-raportit).

Käytössä olevat sääasemat on merkitty karttaan keltaisilla ja punaisilla pisteillä.

Aseta hiiri pisteen päälle nähdäksesi sääaseman nimen.

Klikkaa sitten nähdäksesi säähavainnot ja -ennusteet.

Kartan vaihtaminen: klikkaa mustalla rastilla varustettuja vihreitä pisteitä, niin voit zoomata sisään; viivalla varustettua vihreää pistettä, niin voit zoomata ulos tai vihreitä nuolia, niin pääset viereisille kartoille.


METAR-TAF: